Flight Track Log - Related Links

Times and Time Zones

All times are in EDT time to prevent confusion due to time zone crossing. See the CTL16 flight status page for this flight to view local times or setup timezone preferences in your user account.

Time Position Orientation Groundspeed Altitude Reporting Facility
EDT Latitude Longitude Course Direction KTS MPH feet Rate Location/Type
Wed 08:40:18 PM 39.3833 -84.5333 41° Northeast 127 146 1,500  Level Cincinnati TRACON
Wed 08:41:17 PM 39.4108 -84.5025 41° Northeast 146 168 2,300 750 Climbing Indianapolis Center
Wed 08:42:18 PM 39.4406 -84.4617 47° Northeast 153 176 3,000 729 Climbing Indianapolis Center
Wed 08:43:04 PM 39.4633 -84.4311 46° Northeast 156 180 3,600 722 Climbing Indianapolis Center
Wed 08:44:06 PM 39.4981 -84.3928 40° Northeast 159 183 4,300 677 Climbing Indianapolis Center
Wed 08:45:08 PM 39.5331 -84.3531 41° Northeast 162 186 5,000 390 Climbing Indianapolis Center
Wed 08:46:09 PM 39.5681 -84.3103 43° Northeast 167 192 5,100 49 Climbing Indianapolis Center
Wed 08:47:11 PM 39.6069 -84.2650 42° Northeast 177 204 5,100  Level Indianapolis Center
Wed 08:48:13 PM 39.6469 -84.2194 41° Northeast 184 212 5,100  Level Indianapolis Center
Wed 08:49:15 PM 39.6867 -84.1742 41° Northeast 187 215 5,100  Level Indianapolis Center
Wed 08:50:16 PM 39.7258 -84.1294 41° Northeast 187 215 5,100  Level Indianapolis Center
Wed 08:51:18 PM 39.7714 -84.0756 42° Northeast 187 215 5,100  Level Indianapolis Center
Wed 08:52:20 PM 39.8108 -84.0303 41° Northeast 187 215 5,100  Level Indianapolis Center
Wed 08:53:21 PM 39.8486 -83.9842 43° Northeast 186 214 5,100  Level Indianapolis Center
Wed 08:54:28 PM 39.8906 -83.9292 45° Northeast 186 214 5,100  Level Indianapolis Center
Wed 08:55:25 PM 39.9228 -83.8881 44° Northeast 186 214 5,100  Level Indianapolis Center
Wed 08:56:36 PM 39.9683 -83.8278 45° Northeast 188 216 5,100  Level Indianapolis Center
Wed 08:57:28 PM 39.9983 -83.7908 43° Northeast 188 216 5,100  Level Indianapolis Center
Wed 08:58:30 PM 40.0417 -83.7483 37° Northeast 190 219 5,100  Level Indianapolis Center
Wed 08:59:33 PM 40.0889 -83.6983 39° Northeast 191 220 5,100  Level Indianapolis Center
Wed 09:00:33 PM 40.1269 -83.6622 36° Northeast 191 220 5,100  Level Indianapolis Center
Wed 09:01:34 PM 40.1683 -83.6197 38° Northeast 189 217 5,100  Level Indianapolis Center
Wed 09:02:36 PM 40.2147 -83.5744 37° Northeast 191 220 5,100  Level Indianapolis Center
Wed 09:03:36 PM 40.2594 -83.5272 39° Northeast 191 220 5,100  Level Indianapolis Center
Wed 09:04:37 PM 40.3017 -83.4850 37° Northeast 186 214 5,100  Level Indianapolis Center
Wed 09:05:41 PM 40.3425 -83.4386 41° Northeast 188 216 5,100  Level Indianapolis Center
Wed 09:06:39 PM 40.3814 -83.3994 37° Northeast 192 221 5,100  Level Indianapolis Center
Wed 09:07:44 PM 40.4261 -83.3494 40° Northeast 192 221 5,100  Level Indianapolis Center
Wed 09:08:45 PM 40.4686 -83.3078 37° Northeast 189 217 5,100  Level Indianapolis Center
Wed 09:09:47 PM 40.5100 -83.2628 40° Northeast 191 220 5,100  Level Indianapolis Center
Wed 09:10:48 PM 40.5506 -83.2192 39° Northeast 187 215 5,100  Level Indianapolis Center
Wed 09:11:50 PM 40.5925 -83.1731 40° Northeast 194 223 5,100  Level Indianapolis Center
Wed 09:12:52 PM 40.6300 -83.1275 43° Northeast 191 220 5,100  Level Indianapolis Center
Wed 09:13:53 PM 40.6761 -83.0719 42° Northeast 190 219 5,100  Level Indianapolis Center
Wed 09:14:54 PM 40.7153 -83.0244 43° Northeast 191 220 5,100  Level Indianapolis Center
Wed 09:15:56 PM 40.7544 -82.9756 43° Northeast 192 221 5,100  Level Indianapolis Center
Wed 09:16:57 PM 40.7939 -82.9292 42° Northeast 189 217 5,100  Level Indianapolis Center
Wed 09:17:59 PM 40.8317 -82.8811 44° Northeast 188 216 5,100  Level Indianapolis Center
Wed 09:19:00 PM 40.8697 -82.8328 44° Northeast 188 216 5,100  Level Indianapolis Center
Wed 09:20:02 PM 40.9053 -82.7789 49° Northeast 192 221 5,100  Level Indianapolis Center
Wed 09:21:00 PM 40.9369 -82.7325 48° Northeast 186 214 5,100  Level Cleveland Center

Login

Don't have an account? Register now (free) for customized features, flight alerts, and more!